sensor_id;sensor_type;location;lat;lon;timestamp;P1;durP1;ratioP1;P2;durP2;ratioP2
24064;SDS011;12258;50.940;5.330;2022-08-03T00:00:01;2.95;;;1.80;;
24064;SDS011;12258;50.940;5.330;2022-08-03T00:02:26;3.92;;;2.45;;
24064;SDS011;12258;50.940;5.330;2022-08-03T00:04:52;2.03;;;1.83;;
24064;SDS011;12258;50.940;5.330;2022-08-03T00:07:18;4.75;;;1.70;;
24064;SDS011;12258;50.940;5.330;2022-08-03T00:09:44;3.45;;;1.98;;
24064;SDS011;12258;50.940;5.330;2022-08-03T00:12:10;8.10;;;1.73;;
24064;SDS011;12258;50.940;5.330;2022-08-03T00:14:36;7.32;;;1.70;;
24064;SDS011;12258;50.940;5.330;2022-08-03T00:17:01;4.45;;;2.00;;
24064;SDS011;12258;50.940;5.330;2022-08-03T00:19:27;3.78;;;2.20;;
24064;SDS011;12258;50.940;5.330;2022-08-03T00:21:52;3.05;;;1.63;;
24064;SDS011;12258;50.940;5.330;2022-08-03T00:24:18;3.13;;;1.90;;
24064;SDS011;12258;50.940;5.330;2022-08-03T00:26:44;5.93;;;1.65;;
24064;SDS011;12258;50.940;5.330;2022-08-03T00:29:10;4.38;;;1.60;;
24064;SDS011;12258;50.940;5.330;2022-08-03T00:31:36;4.28;;;1.92;;
24064;SDS011;12258;50.940;5.330;2022-08-03T00:34:01;3.90;;;1.80;;
24064;SDS011;12258;50.940;5.330;2022-08-03T00:36:26;3.75;;;2.00;;
24064;SDS011;12258;50.940;5.330;2022-08-03T00:38:52;3.45;;;2.13;;
24064;SDS011;12258;50.940;5.330;2022-08-03T00:41:20;2.20;;;1.80;;
24064;SDS011;12258;50.940;5.330;2022-08-03T00:43:49;6.28;;;2.03;;
24064;SDS011;12258;50.940;5.330;2022-08-03T00:46:14;3.30;;;1.90;;
24064;SDS011;12258;50.940;5.330;2022-08-03T00:48:40;6.53;;;2.20;;
24064;SDS011;12258;50.940;5.330;2022-08-03T00:51:06;3.40;;;2.17;;
24064;SDS011;12258;50.940;5.330;2022-08-03T00:53:31;3.83;;;2.00;;
24064;SDS011;12258;50.940;5.330;2022-08-03T00:55:59;3.80;;;2.08;;
24064;SDS011;12258;50.940;5.330;2022-08-03T00:58:25;9.48;;;2.95;;
24064;SDS011;12258;50.940;5.330;2022-08-03T01:00:50;4.40;;;2.20;;
24064;SDS011;12258;50.940;5.330;2022-08-03T01:03:16;4.63;;;2.30;;
24064;SDS011;12258;50.940;5.330;2022-08-03T01:05:44;4.20;;;2.22;;
24064;SDS011;12258;50.940;5.330;2022-08-03T01:08:22;5.18;;;2.22;;
24064;SDS011;12258;50.940;5.330;2022-08-03T01:11:16;4.55;;;2.00;;
24064;SDS011;12258;50.940;5.330;2022-08-03T01:16:18;3.70;;;2.13;;
24064;SDS011;12258;50.940;5.330;2022-08-03T01:27:56;11.00;;;2.70;;
24064;SDS011;12258;50.940;5.330;2022-08-03T01:30:30;6.40;;;2.38;;
24064;SDS011;12258;50.940;5.330;2022-08-03T01:33:00;5.13;;;2.80;;
24064;SDS011;12258;50.940;5.330;2022-08-03T01:35:32;5.35;;;2.60;;
24064;SDS011;12258;50.940;5.330;2022-08-03T01:38:03;3.45;;;2.10;;
24064;SDS011;12258;50.940;5.330;2022-08-03T01:40:34;5.85;;;2.40;;
24064;SDS011;12258;50.940;5.330;2022-08-03T01:43:05;4.07;;;2.22;;
24064;SDS011;12258;50.940;5.330;2022-08-03T01:45:33;6.05;;;3.05;;
24064;SDS011;12258;50.940;5.330;2022-08-03T01:48:00;6.80;;;2.63;;
24064;SDS011;12258;50.940;5.330;2022-08-03T01:50:28;3.72;;;2.10;;
24064;SDS011;12258;50.940;5.330;2022-08-03T01:52:55;4.50;;;2.40;;
24064;SDS011;12258;50.940;5.330;2022-08-03T01:55:24;8.25;;;2.47;;
24064;SDS011;12258;50.940;5.330;2022-08-03T01:57:52;8.02;;;2.67;;
24064;SDS011;12258;50.940;5.330;2022-08-03T02:00:19;4.90;;;2.33;;
24064;SDS011;12258;50.940;5.330;2022-08-03T02:02:45;5.15;;;2.58;;
24064;SDS011;12258;50.940;5.330;2022-08-03T02:05:13;12.20;;;2.58;;
24064;SDS011;12258;50.940;5.330;2022-08-03T02:07:39;4.85;;;2.60;;
24064;SDS011;12258;50.940;5.330;2022-08-03T02:10:06;5.80;;;2.70;;
24064;SDS011;12258;50.940;5.330;2022-08-03T02:12:33;4.05;;;2.58;;
24064;SDS011;12258;50.940;5.330;2022-08-03T02:15:01;6.50;;;2.60;;
24064;SDS011;12258;50.940;5.330;2022-08-03T02:17:28;7.40;;;2.95;;
24064;SDS011;12258;50.940;5.330;2022-08-03T02:19:56;3.65;;;2.45;;
24064;SDS011;12258;50.940;5.330;2022-08-03T02:22:24;3.65;;;2.30;;
24064;SDS011;12258;50.940;5.330;2022-08-03T02:24:51;4.65;;;2.72;;
24064;SDS011;12258;50.940;5.330;2022-08-03T02:27:19;6.47;;;2.53;;
24064;SDS011;12258;50.940;5.330;2022-08-03T02:29:48;7.07;;;2.50;;
24064;SDS011;12258;50.940;5.330;2022-08-03T02:32:19;6.70;;;2.40;;
24064;SDS011;12258;50.940;5.330;2022-08-03T02:34:49;4.80;;;2.50;;
24064;SDS011;12258;50.940;5.330;2022-08-03T02:37:18;4.13;;;2.50;;
24064;SDS011;12258;50.940;5.330;2022-08-03T02:39:44;8.25;;;2.45;;
24064;SDS011;12258;50.940;5.330;2022-08-03T02:42:11;4.57;;;2.30;;
24064;SDS011;12258;50.940;5.330;2022-08-03T02:44:39;3.97;;;2.72;;
24064;SDS011;12258;50.940;5.330;2022-08-03T02:47:11;7.55;;;2.70;;
24064;SDS011;12258;50.940;5.330;2022-08-03T02:49:37;4.30;;;2.30;;
24064;SDS011;12258;50.940;5.330;2022-08-03T02:52:07;4.20;;;2.25;;
24064;SDS011;12258;50.940;5.330;2022-08-03T02:54:34;5.28;;;2.80;;
24064;SDS011;12258;50.940;5.330;2022-08-03T02:57:02;7.03;;;2.97;;
24064;SDS011;12258;50.940;5.330;2022-08-03T02:59:31;3.75;;;2.63;;
24064;SDS011;12258;50.940;5.330;2022-08-03T03:01:59;7.22;;;2.78;;
24064;SDS011;12258;50.940;5.330;2022-08-03T03:04:27;6.15;;;2.58;;
24064;SDS011;12258;50.940;5.330;2022-08-03T03:06:53;4.93;;;2.33;;
24064;SDS011;12258;50.940;5.330;2022-08-03T03:09:20;3.97;;;2.30;;
24064;SDS011;12258;50.940;5.330;2022-08-03T03:11:46;3.85;;;2.42;;
24064;SDS011;12258;50.940;5.330;2022-08-03T03:14:14;6.38;;;3.05;;
24064;SDS011;12258;50.940;5.330;2022-08-03T03:16:41;3.78;;;2.38;;
24064;SDS011;12258;50.940;5.330;2022-08-03T03:19:08;4.57;;;2.70;;
24064;SDS011;12258;50.940;5.330;2022-08-03T03:21:35;5.30;;;2.65;;
24064;SDS011;12258;50.940;5.330;2022-08-03T03:24:02;3.70;;;2.65;;
24064;SDS011;12258;50.940;5.330;2022-08-03T03:26:29;5.25;;;2.55;;
24064;SDS011;12258;50.940;5.330;2022-08-03T03:28:55;6.88;;;2.58;;
24064;SDS011;12258;50.940;5.330;2022-08-03T03:31:21;5.70;;;2.35;;
24064;SDS011;12258;50.940;5.330;2022-08-03T03:33:47;6.32;;;2.42;;
24064;SDS011;12258;50.940;5.330;2022-08-03T03:36:13;9.60;;;2.75;;
24064;SDS011;12258;50.940;5.330;2022-08-03T03:38:38;4.60;;;2.55;;
24064;SDS011;12258;50.940;5.330;2022-08-03T03:41:04;5.95;;;2.83;;
24064;SDS011;12258;50.940;5.330;2022-08-03T03:43:30;7.18;;;2.60;;
24064;SDS011;12258;50.940;5.330;2022-08-03T03:45:57;3.95;;;2.10;;
24064;SDS011;12258;50.940;5.330;2022-08-03T03:48:24;6.38;;;2.33;;
24064;SDS011;12258;50.940;5.330;2022-08-03T03:50:50;4.90;;;2.05;;
24064;SDS011;12258;50.940;5.330;2022-08-03T03:53:17;4.57;;;2.58;;
24064;SDS011;12258;50.940;5.330;2022-08-03T03:55:42;4.35;;;2.35;;
24064;SDS011;12258;50.940;5.330;2022-08-03T03:58:08;4.72;;;2.22;;
24064;SDS011;12258;50.940;5.330;2022-08-03T04:00:36;5.78;;;2.28;;
24064;SDS011;12258;50.940;5.330;2022-08-03T04:03:02;7.03;;;2.45;;
24064;SDS011;12258;50.940;5.330;2022-08-03T04:05:27;6.68;;;3.17;;
24064;SDS011;12258;50.940;5.330;2022-08-03T04:19:42;6.78;;;2.40;;
24064;SDS011;12258;50.940;5.330;2022-08-03T04:22:15;5.95;;;2.28;;
24064;SDS011;12258;50.940;5.330;2022-08-03T04:24:45;4.53;;;1.95;;
24064;SDS011;12258;50.940;5.330;2022-08-03T04:27:14;6.25;;;2.55;;
24064;SDS011;12258;50.940;5.330;2022-08-03T04:29:45;6.75;;;2.88;;
24064;SDS011;12258;50.940;5.330;2022-08-03T04:32:12;5.88;;;1.90;;
24064;SDS011;12258;50.940;5.330;2022-08-03T04:34:39;6.00;;;2.47;;
24064;SDS011;12258;50.940;5.330;2022-08-03T04:37:07;4.85;;;1.90;;
24064;SDS011;12258;50.940;5.330;2022-08-03T04:39:36;5.22;;;2.28;;
24064;SDS011;12258;50.940;5.330;2022-08-03T04:42:05;3.03;;;2.00;;
24064;SDS011;12258;50.940;5.330;2022-08-03T04:44:36;9.05;;;3.10;;
24064;SDS011;12258;50.940;5.330;2022-08-03T04:47:06;5.63;;;2.50;;
24064;SDS011;12258;50.940;5.330;2022-08-03T04:49:32;5.40;;;2.35;;
24064;SDS011;12258;50.940;5.330;2022-08-03T04:52:01;5.25;;;2.28;;
24064;SDS011;12258;50.940;5.330;2022-08-03T04:54:27;5.38;;;2.60;;
24064;SDS011;12258;50.940;5.330;2022-08-03T04:56:53;3.67;;;2.20;;
24064;SDS011;12258;50.940;5.330;2022-08-03T04:59:19;5.80;;;2.55;;
24064;SDS011;12258;50.940;5.330;2022-08-03T05:01:44;5.50;;;2.42;;
24064;SDS011;12258;50.940;5.330;2022-08-03T05:04:10;5.35;;;2.30;;
24064;SDS011;12258;50.940;5.330;2022-08-03T05:06:35;6.85;;;3.00;;
24064;SDS011;12258;50.940;5.330;2022-08-03T05:09:01;11.02;;;3.42;;
24064;SDS011;12258;50.940;5.330;2022-08-03T05:11:27;7.60;;;2.75;;
24064;SDS011;12258;50.940;5.330;2022-08-03T05:13:53;7.50;;;2.70;;
24064;SDS011;12258;50.940;5.330;2022-08-03T05:16:19;8.25;;;2.42;;
24064;SDS011;12258;50.940;5.330;2022-08-03T05:18:44;5.15;;;2.60;;
24064;SDS011;12258;50.940;5.330;2022-08-03T05:21:10;4.78;;;2.10;;
24064;SDS011;12258;50.940;5.330;2022-08-03T05:23:38;5.07;;;3.03;;
24064;SDS011;12258;50.940;5.330;2022-08-03T05:26:04;7.85;;;2.47;;
24064;SDS011;12258;50.940;5.330;2022-08-03T05:28:30;6.32;;;2.03;;
24064;SDS011;12258;50.940;5.330;2022-08-03T05:30:56;4.55;;;2.40;;
24064;SDS011;12258;50.940;5.330;2022-08-03T05:33:21;9.60;;;2.20;;
24064;SDS011;12258;50.940;5.330;2022-08-03T05:35:47;9.93;;;2.20;;
24064;SDS011;12258;50.940;5.330;2022-08-03T05:38:12;3.97;;;2.00;;
24064;SDS011;12258;50.940;5.330;2022-08-03T05:40:38;6.13;;;2.25;;
24064;SDS011;12258;50.940;5.330;2022-08-03T05:43:04;6.03;;;2.35;;
24064;SDS011;12258;50.940;5.330;2022-08-03T05:45:30;7.20;;;2.00;;
24064;SDS011;12258;50.940;5.330;2022-08-03T05:47:56;8.88;;;2.90;;
24064;SDS011;12258;50.940;5.330;2022-08-03T05:50:21;7.93;;;2.10;;
24064;SDS011;12258;50.940;5.330;2022-08-03T05:52:46;6.60;;;2.50;;
24064;SDS011;12258;50.940;5.330;2022-08-03T05:55:12;3.55;;;2.03;;
24064;SDS011;12258;50.940;5.330;2022-08-03T05:57:38;5.78;;;2.13;;
24064;SDS011;12258;50.940;5.330;2022-08-03T06:00:05;6.07;;;2.10;;
24064;SDS011;12258;50.940;5.330;2022-08-03T06:02:32;8.23;;;2.08;;
24064;SDS011;12258;50.940;5.330;2022-08-03T06:04:57;6.93;;;2.05;;
24064;SDS011;12258;50.940;5.330;2022-08-03T06:07:22;9.25;;;2.63;;
24064;SDS011;12258;50.940;5.330;2022-08-03T06:09:48;7.65;;;2.25;;
24064;SDS011;12258;50.940;5.330;2022-08-03T06:12:14;9.10;;;2.15;;
24064;SDS011;12258;50.940;5.330;2022-08-03T06:14:39;6.13;;;2.15;;
24064;SDS011;12258;50.940;5.330;2022-08-03T06:17:05;5.57;;;1.90;;
24064;SDS011;12258;50.940;5.330;2022-08-03T06:19:30;12.15;;;2.53;;
24064;SDS011;12258;50.940;5.330;2022-08-03T06:21:56;8.13;;;2.38;;
24064;SDS011;12258;50.940;5.330;2022-08-03T06:24:22;7.38;;;2.15;;
24064;SDS011;12258;50.940;5.330;2022-08-03T06:26:47;5.03;;;1.90;;
24064;SDS011;12258;50.940;5.330;2022-08-03T06:29:13;7.05;;;2.10;;
24064;SDS011;12258;50.940;5.330;2022-08-03T06:31:38;15.65;;;3.35;;
24064;SDS011;12258;50.940;5.330;2022-08-03T06:34:04;5.90;;;2.08;;
24064;SDS011;12258;50.940;5.330;2022-08-03T06:36:30;4.95;;;2.65;;
24064;SDS011;12258;50.940;5.330;2022-08-03T06:38:56;8.23;;;1.73;;
24064;SDS011;12258;50.940;5.330;2022-08-03T06:41:23;5.88;;;2.17;;
24064;SDS011;12258;50.940;5.330;2022-08-03T06:43:49;4.63;;;1.90;;
24064;SDS011;12258;50.940;5.330;2022-08-03T06:46:14;7.00;;;1.88;;
24064;SDS011;12258;50.940;5.330;2022-08-03T06:48:40;8.23;;;2.40;;
24064;SDS011;12258;50.940;5.330;2022-08-03T06:51:06;7.68;;;1.95;;
24064;SDS011;12258;50.940;5.330;2022-08-03T06:53:31;8.15;;;2.17;;
24064;SDS011;12258;50.940;5.330;2022-08-03T06:55:57;4.60;;;1.70;;
24064;SDS011;12258;50.940;5.330;2022-08-03T06:58:22;8.38;;;2.13;;
24064;SDS011;12258;50.940;5.330;2022-08-03T07:00:48;5.90;;;1.73;;
24064;SDS011;12258;50.940;5.330;2022-08-03T07:03:13;6.57;;;1.70;;
24064;SDS011;12258;50.940;5.330;2022-08-03T07:05:40;6.97;;;2.15;;
24064;SDS011;12258;50.940;5.330;2022-08-03T07:08:06;9.70;;;2.17;;
24064;SDS011;12258;50.940;5.330;2022-08-03T07:10:32;6.05;;;2.17;;
24064;SDS011;12258;50.940;5.330;2022-08-03T07:12:57;7.55;;;1.98;;
24064;SDS011;12258;50.940;5.330;2022-08-03T07:15:23;4.65;;;1.73;;
24064;SDS011;12258;50.940;5.330;2022-08-03T07:17:49;6.13;;;1.80;;
24064;SDS011;12258;50.940;5.330;2022-08-03T07:20:15;8.07;;;2.40;;
24064;SDS011;12258;50.940;5.330;2022-08-03T07:22:42;7.53;;;2.17;;
24064;SDS011;12258;50.940;5.330;2022-08-03T07:25:08;6.75;;;2.08;;
24064;SDS011;12258;50.940;5.330;2022-08-03T07:27:34;7.97;;;1.98;;
24064;SDS011;12258;50.940;5.330;2022-08-03T07:30:01;11.13;;;1.88;;
24064;SDS011;12258;50.940;5.330;2022-08-03T07:32:29;6.03;;;1.90;;
24064;SDS011;12258;50.940;5.330;2022-08-03T07:34:55;7.93;;;1.88;;
24064;SDS011;12258;50.940;5.330;2022-08-03T07:37:21;9.18;;;2.35;;
24064;SDS011;12258;50.940;5.330;2022-08-03T07:39:46;8.45;;;1.77;;
24064;SDS011;12258;50.940;5.330;2022-08-03T07:42:12;8.27;;;1.33;;
24064;SDS011;12258;50.940;5.330;2022-08-03T07:44:37;5.68;;;1.50;;
24064;SDS011;12258;50.940;5.330;2022-08-03T07:47:03;6.22;;;1.40;;
24064;SDS011;12258;50.940;5.330;2022-08-03T07:49:29;10.88;;;1.75;;
24064;SDS011;12258;50.940;5.330;2022-08-03T07:51:54;4.18;;;1.00;;
24064;SDS011;12258;50.940;5.330;2022-08-03T07:54:38;4.05;;;1.40;;
24064;SDS011;12258;50.940;5.330;2022-08-03T07:57:04;4.47;;;1.00;;
24064;SDS011;12258;50.940;5.330;2022-08-03T07:59:29;5.10;;;1.30;;
24064;SDS011;12258;50.940;5.330;2022-08-03T08:01:55;3.05;;;1.30;;
24064;SDS011;12258;50.940;5.330;2022-08-03T08:04:21;4.75;;;0.95;;
24064;SDS011;12258;50.940;5.330;2022-08-03T08:06:46;6.32;;;1.20;;
24064;SDS011;12258;50.940;5.330;2022-08-03T08:09:12;4.68;;;1.50;;
24064;SDS011;12258;50.940;5.330;2022-08-03T08:11:38;5.78;;;1.20;;
24064;SDS011;12258;50.940;5.330;2022-08-03T08:14:04;11.27;;;1.50;;
24064;SDS011;12258;50.940;5.330;2022-08-03T08:16:31;5.00;;;1.20;;
24064;SDS011;12258;50.940;5.330;2022-08-03T08:18:56;5.07;;;1.50;;
24064;SDS011;12258;50.940;5.330;2022-08-03T08:21:22;2.30;;;0.75;;
24064;SDS011;12258;50.940;5.330;2022-08-03T08:23:48;7.00;;;1.42;;
24064;SDS011;12258;50.940;5.330;2022-08-03T08:26:13;6.90;;;1.77;;
24064;SDS011;12258;50.940;5.330;2022-08-03T08:28:39;5.47;;;0.80;;
24064;SDS011;12258;50.940;5.330;2022-08-03T08:31:04;3.60;;;0.80;;
24064;SDS011;12258;50.940;5.330;2022-08-03T08:33:30;3.30;;;1.05;;
24064;SDS011;12258;50.940;5.330;2022-08-03T08:35:56;2.55;;;0.90;;
24064;SDS011;12258;50.940;5.330;2022-08-03T08:38:22;4.25;;;1.20;;
24064;SDS011;12258;50.940;5.330;2022-08-03T08:40:48;3.38;;;1.15;;
24064;SDS011;12258;50.940;5.330;2022-08-03T08:43:14;3.33;;;0.85;;
24064;SDS011;12258;50.940;5.330;2022-08-03T08:45:40;5.82;;;1.00;;
24064;SDS011;12258;50.940;5.330;2022-08-03T08:48:07;7.05;;;1.80;;
24064;SDS011;12258;50.940;5.330;2022-08-03T08:50:35;4.25;;;1.20;;
24064;SDS011;12258;50.940;5.330;2022-08-03T08:53:02;4.03;;;1.10;;
24064;SDS011;12258;50.940;5.330;2022-08-03T08:55:31;3.30;;;1.00;;
24064;SDS011;12258;50.940;5.330;2022-08-03T08:58:00;3.92;;;1.38;;
24064;SDS011;12258;50.940;5.330;2022-08-03T09:00:29;3.67;;;1.23;;
24064;SDS011;12258;50.940;5.330;2022-08-03T09:02:55;3.15;;;0.90;;
24064;SDS011;12258;50.940;5.330;2022-08-03T09:05:21;3.75;;;1.23;;
24064;SDS011;12258;50.940;5.330;2022-08-03T09:07:47;5.82;;;1.10;;
24064;SDS011;12258;50.940;5.330;2022-08-03T09:10:13;5.72;;;1.55;;
24064;SDS011;12258;50.940;5.330;2022-08-03T09:12:51;2.90;;;1.00;;
24064;SDS011;12258;50.940;5.330;2022-08-03T09:17:54;5.47;;;1.33;;
24064;SDS011;12258;50.940;5.330;2022-08-03T09:20:22;3.47;;;1.27;;
24064;SDS011;12258;50.940;5.330;2022-08-03T09:23:01;3.03;;;1.15;;
24064;SDS011;12258;50.940;5.330;2022-08-03T09:25:33;4.90;;;1.63;;
24064;SDS011;12258;50.940;5.330;2022-08-03T09:28:10;2.53;;;1.00;;
24064;SDS011;12258;50.940;5.330;2022-08-03T09:30:37;1.45;;;0.90;;
24064;SDS011;12258;50.940;5.330;2022-08-03T09:33:08;4.85;;;1.00;;
24064;SDS011;12258;50.940;5.330;2022-08-03T09:38:16;5.15;;;0.90;;
24064;SDS011;12258;50.940;5.330;2022-08-03T09:40:53;3.42;;;1.00;;
24064;SDS011;12258;50.940;5.330;2022-08-03T09:43:20;2.05;;;0.98;;
24064;SDS011;12258;50.940;5.330;2022-08-03T09:45:46;1.85;;;0.98;;
24064;SDS011;12258;50.940;5.330;2022-08-03T09:48:23;2.83;;;0.73;;
24064;SDS011;12258;50.940;5.330;2022-08-03T09:50:50;3.13;;;1.23;;
24064;SDS011;12258;50.940;5.330;2022-08-03T09:53:19;3.83;;;0.90;;
24064;SDS011;12258;50.940;5.330;2022-08-03T09:55:50;6.53;;;1.10;;
24064;SDS011;12258;50.940;5.330;2022-08-03T09:58:26;3.55;;;1.00;;
24064;SDS011;12258;50.940;5.330;2022-08-03T10:00:58;3.25;;;1.10;;
24064;SDS011;12258;50.940;5.330;2022-08-03T10:03:26;4.03;;;0.88;;
24064;SDS011;12258;50.940;5.330;2022-08-03T10:05:54;4.68;;;0.93;;
24064;SDS011;12258;50.940;5.330;2022-08-03T10:08:21;4.07;;;1.05;;
24064;SDS011;12258;50.940;5.330;2022-08-03T10:10:48;7.47;;;1.25;;
24064;SDS011;12258;50.940;5.330;2022-08-03T10:13:15;2.35;;;0.73;;
24064;SDS011;12258;50.940;5.330;2022-08-03T10:15:43;5.00;;;0.93;;
24064;SDS011;12258;50.940;5.330;2022-08-03T10:18:10;4.13;;;0.95;;
24064;SDS011;12258;50.940;5.330;2022-08-03T10:20:37;2.28;;;0.52;;
24064;SDS011;12258;50.940;5.330;2022-08-03T10:23:09;7.25;;;1.02;;
24064;SDS011;12258;50.940;5.330;2022-08-03T10:25:35;3.40;;;0.60;;
24064;SDS011;12258;50.940;5.330;2022-08-03T10:28:05;3.20;;;0.65;;
24064;SDS011;12258;50.940;5.330;2022-08-03T10:30:32;3.45;;;1.05;;
24064;SDS011;12258;50.940;5.330;2022-08-03T10:33:01;2.85;;;0.90;;
24064;SDS011;12258;50.940;5.330;2022-08-03T10:35:29;3.00;;;0.90;;
24064;SDS011;12258;50.940;5.330;2022-08-03T10:40:26;4.63;;;1.10;;
24064;SDS011;12258;50.940;5.330;2022-08-03T10:42:54;6.75;;;0.68;;
24064;SDS011;12258;50.940;5.330;2022-08-03T10:45:27;3.30;;;1.00;;
24064;SDS011;12258;50.940;5.330;2022-08-03T10:47:54;1.95;;;0.60;;
24064;SDS011;12258;50.940;5.330;2022-08-03T10:50:22;1.25;;;0.70;;
24064;SDS011;12258;50.940;5.330;2022-08-03T10:55:37;2.53;;;0.95;;
24064;SDS011;12258;50.940;5.330;2022-08-03T11:01:07;4.68;;;1.20;;
24064;SDS011;12258;50.940;5.330;2022-08-03T11:06:19;4.60;;;0.80;;
24064;SDS011;12258;50.940;5.330;2022-08-03T11:08:47;2.35;;;1.08;;
24064;SDS011;12258;50.940;5.330;2022-08-03T11:16:32;1.08;;;0.55;;
24064;SDS011;12258;50.940;5.330;2022-08-03T11:19:00;1.95;;;1.27;;
24064;SDS011;12258;50.940;5.330;2022-08-03T11:37:34;2.65;;;0.88;;
24064;SDS011;12258;50.940;5.330;2022-08-03T11:40:01;2.30;;;0.90;;
24064;SDS011;12258;50.940;5.330;2022-08-03T11:44:56;4.18;;;0.80;;
24064;SDS011;12258;50.940;5.330;2022-08-03T11:47:24;1.27;;;0.73;;
24064;SDS011;12258;50.940;5.330;2022-08-03T11:49:53;3.08;;;1.08;;
24064;SDS011;12258;50.940;5.330;2022-08-03T11:52:21;3.30;;;1.20;;
24064;SDS011;12258;50.940;5.330;2022-08-03T11:54:50;5.88;;;0.85;;
24064;SDS011;12258;50.940;5.330;2022-08-03T11:57:33;3.45;;;1.15;;
24064;SDS011;12258;50.940;5.330;2022-08-03T12:02:25;6.10;;;1.10;;
24064;SDS011;12258;50.940;5.330;2022-08-03T12:04:52;3.53;;;1.17;;
24064;SDS011;12258;50.940;5.330;2022-08-03T12:07:18;3.90;;;0.77;;
24064;SDS011;12258;50.940;5.330;2022-08-03T12:12:39;4.55;;;0.80;;
24064;SDS011;12258;50.940;5.330;2022-08-03T12:15:06;4.05;;;1.25;;
24064;SDS011;12258;50.940;5.330;2022-08-03T12:17:33;1.73;;;0.88;;
24064;SDS011;12258;50.940;5.330;2022-08-03T12:20:00;5.35;;;0.90;;
24064;SDS011;12258;50.940;5.330;2022-08-03T12:22:37;1.48;;;0.80;;
24064;SDS011;12258;50.940;5.330;2022-08-03T12:25:07;2.35;;;0.80;;
24064;SDS011;12258;50.940;5.330;2022-08-03T12:27:46;3.58;;;0.90;;
24064;SDS011;12258;50.940;5.330;2022-08-03T12:30:11;2.15;;;1.08;;
24064;SDS011;12258;50.940;5.330;2022-08-03T12:32:37;3.53;;;0.93;;
24064;SDS011;12258;50.940;5.330;2022-08-03T12:35:03;5.78;;;1.02;;
24064;SDS011;12258;50.940;5.330;2022-08-03T12:37:29;4.03;;;1.00;;
24064;SDS011;12258;50.940;5.330;2022-08-03T12:39:56;2.50;;;0.63;;
24064;SDS011;12258;50.940;5.330;2022-08-03T12:42:35;4.15;;;0.85;;
24064;SDS011;12258;50.940;5.330;2022-08-03T12:47:59;4.90;;;0.90;;
24064;SDS011;12258;50.940;5.330;2022-08-03T12:50:30;3.38;;;0.93;;
24064;SDS011;12258;50.940;5.330;2022-08-03T12:52:58;3.10;;;0.77;;
24064;SDS011;12258;50.940;5.330;2022-08-03T12:55:25;2.75;;;0.93;;
24064;SDS011;12258;50.940;5.330;2022-08-03T12:58:03;6.28;;;0.90;;
24064;SDS011;12258;50.940;5.330;2022-08-03T13:00:31;2.45;;;1.08;;
24064;SDS011;12258;50.940;5.330;2022-08-03T13:03:06;2.97;;;0.73;;
24064;SDS011;12258;50.940;5.330;2022-08-03T13:05:44;1.05;;;0.95;;
24064;SDS011;12258;50.940;5.330;2022-08-03T13:08:20;0.82;;;0.70;;
24064;SDS011;12258;50.940;5.330;2022-08-03T13:10:48;2.83;;;0.82;;
24064;SDS011;12258;50.940;5.330;2022-08-03T13:13:14;4.30;;;1.20;;
24064;SDS011;12258;50.940;5.330;2022-08-03T13:15:41;1.05;;;0.77;;
24064;SDS011;12258;50.940;5.330;2022-08-03T13:18:07;2.05;;;0.80;;
24064;SDS011;12258;50.940;5.330;2022-08-03T13:20:33;6.63;;;0.80;;
24064;SDS011;12258;50.940;5.330;2022-08-03T13:22:59;2.45;;;1.15;;
24064;SDS011;12258;50.940;5.330;2022-08-03T13:25:24;1.25;;;0.82;;
24064;SDS011;12258;50.940;5.330;2022-08-03T13:27:50;1.40;;;0.80;;
24064;SDS011;12258;50.940;5.330;2022-08-03T13:30:16;3.88;;;1.10;;
24064;SDS011;12258;50.940;5.330;2022-08-03T13:32:42;1.17;;;0.70;;
24064;SDS011;12258;50.940;5.330;2022-08-03T13:35:08;2.35;;;0.80;;
24064;SDS011;12258;50.940;5.330;2022-08-03T13:37:35;4.35;;;0.98;;
24064;SDS011;12258;50.940;5.330;2022-08-03T13:40:01;2.33;;;0.82;;
24064;SDS011;12258;50.940;5.330;2022-08-03T13:42:32;2.33;;;0.70;;
24064;SDS011;12258;50.940;5.330;2022-08-03T13:44:59;2.58;;;0.75;;
24064;SDS011;12258;50.940;5.330;2022-08-03T13:47:25;2.55;;;0.82;;
24064;SDS011;12258;50.940;5.330;2022-08-03T13:49:52;5.28;;;1.00;;
24064;SDS011;12258;50.940;5.330;2022-08-03T13:52:18;4.57;;;1.05;;
24064;SDS011;12258;50.940;5.330;2022-08-03T13:54:44;2.63;;;0.98;;
24064;SDS011;12258;50.940;5.330;2022-08-03T13:57:10;1.73;;;0.82;;
24064;SDS011;12258;50.940;5.330;2022-08-03T13:59:35;3.78;;;0.90;;
24064;SDS011;12258;50.940;5.330;2022-08-03T14:02:02;1.38;;;0.90;;
24064;SDS011;12258;50.940;5.330;2022-08-03T14:04:29;4.78;;;1.13;;
24064;SDS011;12258;50.940;5.330;2022-08-03T14:06:54;3.25;;;0.95;;
24064;SDS011;12258;50.940;5.330;2022-08-03T14:09:20;2.78;;;1.05;;
24064;SDS011;12258;50.940;5.330;2022-08-03T14:11:46;2.13;;;0.60;;
24064;SDS011;12258;50.940;5.330;2022-08-03T14:14:12;3.55;;;1.05;;
24064;SDS011;12258;50.940;5.330;2022-08-03T14:16:38;4.70;;;1.10;;
24064;SDS011;12258;50.940;5.330;2022-08-03T14:19:04;1.77;;;1.00;;
24064;SDS011;12258;50.940;5.330;2022-08-03T14:21:31;2.00;;;1.08;;
24064;SDS011;12258;50.940;5.330;2022-08-03T14:23:58;1.58;;;0.93;;
24064;SDS011;12258;50.940;5.330;2022-08-03T14:26:23;1.02;;;0.90;;
24064;SDS011;12258;50.940;5.330;2022-08-03T14:28:49;1.95;;;0.82;;
24064;SDS011;12258;50.940;5.330;2022-08-03T14:31:14;4.35;;;0.90;;
24064;SDS011;12258;50.940;5.330;2022-08-03T14:33:40;2.85;;;0.70;;
24064;SDS011;12258;50.940;5.330;2022-08-03T14:36:06;5.80;;;0.88;;
24064;SDS011;12258;50.940;5.330;2022-08-03T14:38:32;1.77;;;0.80;;
24064;SDS011;12258;50.940;5.330;2022-08-03T14:41:00;2.72;;;1.40;;
24064;SDS011;12258;50.940;5.330;2022-08-03T14:43:26;1.50;;;0.73;;
24064;SDS011;12258;50.940;5.330;2022-08-03T14:45:52;4.05;;;0.80;;
24064;SDS011;12258;50.940;5.330;2022-08-03T14:48:21;1.48;;;0.98;;
24064;SDS011;12258;50.940;5.330;2022-08-03T14:50:48;2.22;;;0.70;;
24064;SDS011;12258;50.940;5.330;2022-08-03T14:53:14;2.47;;;0.70;;
24064;SDS011;12258;50.940;5.330;2022-08-03T14:55:41;2.28;;;1.05;;
24064;SDS011;12258;50.940;5.330;2022-08-03T14:58:08;2.40;;;0.90;;
24064;SDS011;12258;50.940;5.330;2022-08-03T15:00:34;3.72;;;0.90;;
24064;SDS011;12258;50.940;5.330;2022-08-03T15:03:00;4.47;;;0.73;;
24064;SDS011;12258;50.940;5.330;2022-08-03T15:05:27;3.50;;;0.77;;
24064;SDS011;12258;50.940;5.330;2022-08-03T15:07:52;5.95;;;1.15;;
24064;SDS011;12258;50.940;5.330;2022-08-03T15:10:18;1.50;;;0.70;;
24064;SDS011;12258;50.940;5.330;2022-08-03T15:12:44;2.15;;;0.70;;
24064;SDS011;12258;50.940;5.330;2022-08-03T15:15:09;2.00;;;0.55;;
24064;SDS011;12258;50.940;5.330;2022-08-03T15:17:35;2.42;;;1.23;;
24064;SDS011;12258;50.940;5.330;2022-08-03T15:20:01;4.22;;;1.00;;
24064;SDS011;12258;50.940;5.330;2022-08-03T15:22:27;3.45;;;1.00;;
24064;SDS011;12258;50.940;5.330;2022-08-03T15:24:52;2.78;;;0.98;;
24064;SDS011;12258;50.940;5.330;2022-08-03T15:27:19;3.83;;;0.85;;
24064;SDS011;12258;50.940;5.330;2022-08-03T15:29:45;1.33;;;0.90;;
24064;SDS011;12258;50.940;5.330;2022-08-03T15:32:11;3.25;;;1.00;;
24064;SDS011;12258;50.940;5.330;2022-08-03T15:34:36;2.47;;;0.80;;
24064;SDS011;12258;50.940;5.330;2022-08-03T15:37:02;1.58;;;1.00;;
24064;SDS011;12258;50.940;5.330;2022-08-03T15:39:29;1.95;;;0.90;;
24064;SDS011;12258;50.940;5.330;2022-08-03T15:41:54;2.28;;;0.70;;
24064;SDS011;12258;50.940;5.330;2022-08-03T15:44:20;3.15;;;0.77;;
24064;SDS011;12258;50.940;5.330;2022-08-03T15:46:46;1.52;;;0.93;;
24064;SDS011;12258;50.940;5.330;2022-08-03T15:49:11;4.43;;;0.90;;
24064;SDS011;12258;50.940;5.330;2022-08-03T15:51:37;1.75;;;1.05;;
24064;SDS011;12258;50.940;5.330;2022-08-03T15:54:04;3.03;;;0.88;;
24064;SDS011;12258;50.940;5.330;2022-08-03T15:56:31;1.90;;;1.25;;
24064;SDS011;12258;50.940;5.330;2022-08-03T15:58:57;5.18;;;1.10;;